Hanseatic Scout — V2BM2 — position and weather

sailwx.info

Track history (hours):
 
Tides and Currents Weather Stations Pressure Air Temp Water Temp Dewpoint Dewpoint Depression Visibility Wind Speed Wind Dir Waves Ship Positions

Hanseatic Scout

Last reported at 2016-Feb-10 21:24 UTC. Time now 2016-Feb-11 08:45 UTC.
Position N 55°43' E 015°40'.

Length 89 m; draft 6.3 m.

Type: Ship. MMSI: 304867000.

Date/timePositionNaut miles runAvg speedWind from/ knotsBaromVisibWave heightAir tempDewpointWater temp
2016-Feb-10 21:24N 55°43' E 015°40'910.5
2016-Feb-10 20:33N 55°38' E 015°26'1110.6
2016-Feb-10 19:33N 55°33' E 015°10'1111.0
2016-Feb-10 18:33N 55°27' E 014°54'1010.2
2016-Feb-10 17:33N 55°23' E 014°38'1010.2
2016-Feb-10 16:33N 55°15' E 014°27'9 9.3
2016-Feb-10 15:33N 55°10' E 014°13'1110.5
2016-Feb-10 14:33N 55°10' E 013°55'1010.0
2016-Feb-10 13:33N 55°12' E 013°37'1010.1
2016-Feb-10 12:33N 55°13' E 013°20'1110.6
2016-Feb-10 11:29N 55°14' E 013°00'1010.7
2016-Feb-10 10:33N 55°17' E 012°43'8 8.3
2016-Feb-10 09:33N 55°25' E 012°40'1010.4
2016-Feb-10 08:33N 55°35' E 012°42'1010.2
2016-Feb-10 07:33N 55°45' E 012°41'1010.4
2016-Feb-10 06:33N 55°55' E 012°38'9 8.9
2016-Feb-10 05:33N 56°04' E 012°36'10 9.5
2016-Feb-10 04:33N 56°10' E 012°22'2410.0
2016-Feb-10 02:11N 56°29' E 011°58'710.6
2016-Feb-10 01:33N 56°36' E 011°55'1010.3
2016-Feb-10 00:33N 56°46' E 011°51'1010.2
2016-Feb-09 23:33N 56°56' E 011°45'1010.1
2016-Feb-09 22:33N 57°05' E 011°38'1010.0
2016-Feb-09 21:33N 57°14' E 011°32'1010.2
2016-Feb-09 20:33N 57°24' E 011°26'10 9.5
2016-Feb-09 19:33N 57°32' E 011°15'10 9.6
2016-Feb-09 18:33N 57°38' E 011°01'1010.4
2016-Feb-09 17:33N 57°46' E 010°48'1110.9
2016-Feb-09 16:30N 57°48' E 010°27'11910.6
2016-Feb-09 05:14N 57°43' E 006°44'300 9.6
2016-Feb-07 22:05N 58°41' W 002°34'5 9.9
2016-Feb-07 21:33N 58°42' W 002°44'1111.1
2016-Feb-07 20:33N 58°43' W 003°05'8 8.4
2016-Feb-07 19:33N 58°42' W 003°21'8 8.2
2016-Feb-07 18:33N 58°42' W 003°37'9 9.1
2016-Feb-07 17:33N 58°42' W 003°55'9 9.1
2016-Feb-07 16:34N 58°41' W 004°12'193 8.2
2016-Feb-06 17:06N 55°50' W 006°57'610.3
2016-Feb-06 16:33N 55°44' W 006°53'1110.7
2016-Feb-06 15:33N 55°35' W 006°45'1010.0
2016-Feb-06 14:33N 55°28' W 006°32'1212.2
2016-Feb-06 13:33N 55°25' W 006°11'1212.3
2016-Feb-06 12:33N 55°18' W 005°54'1313.4
2016-Feb-06 11:33N 55°06' W 005°44'1211.5
2016-Feb-06 10:33N 54°56' W 005°34'1110.7
2016-Feb-06 09:33N 54°46' W 005°26'10 9.8
2016-Feb-06 08:33N 54°37' W 005°19'10 9.6
2016-Feb-06 07:33N 54°28' W 005°14'10 9.6
2016-Feb-06 06:33N 54°19' W 005°09'10 9.9
2016-Feb-06 05:33N 54°09' W 005°03'5010.1
2016-Feb-06 00:33N 53°38' W 003°57'1110.9
2016-Feb-05 23:33N 53°34' W 003°40'1110.7
2016-Feb-05 22:33N 53°32' W 003°22'6 6.1
2016-Feb-05 21:33N 53°32' W 003°12'4 4.3
2016-Feb-05 20:33N 53°30' W 003°05'5 5.5
2016-Feb-05 19:33N 53°25' W 003°01'1 0.8
2016-Feb-05 18:33N 53°24' W 003°01'0 0.0
2016-Feb-05 17:33N 53°24' W 003°01'1 1.0
2016-Feb-05 16:33N 53°24' W 003°03'0 0.0
2016-Feb-05 15:32N 53°24' W 003°03'0 0.0
2016-Feb-05 14:32N 53°24' W 003°03'0 0.0
2016-Feb-05 13:32N 53°24' W 003°03'0 0.0
2016-Feb-05 12:29N 53°24' W 003°03'0 0.0
2016-Feb-05 11:32N 53°24' W 003°03'0 0.0
2016-Feb-05 10:32N 53°24' W 003°03'0 0.0
2016-Feb-05 09:32N 53°24' W 003°03'0 0.0
2016-Feb-05 08:29N 53°24' W 003°03'0 0.0
2016-Feb-05 07:32N 53°24' W 003°03'0 0.0
2016-Feb-05 06:32N 53°24' W 003°03'0 0.0
2016-Feb-05 05:32N 53°24' W 003°03'0 0.0
2016-Feb-05 04:32N 53°24' W 003°03'0 0.0
2016-Feb-05 03:29N 53°24' W 003°03'0 0.0
2016-Feb-05 02:29N 53°24' W 003°03'0 0.0
2016-Feb-05 01:26N 53°24' W 003°03'0 0.0
2016-Feb-05 00:32N 53°24' W 003°03'0 0.0
2016-Feb-04 23:32N 53°24' W 003°03'0 0.0
2016-Feb-04 22:32N 53°24' W 003°03'0 0.0
2016-Feb-04 21:32N 53°24' W 003°03'0 0.0
2016-Feb-04 20:32N 53°24' W 003°03'0 0.0
2016-Feb-04 19:32N 53°24' W 003°03'0 0.0
2016-Feb-04 18:29N 53°24' W 003°03'0 0.0
2016-Feb-04 17:32N 53°24' W 003°03'0 0.0
2016-Feb-04 16:29N 53°24' W 003°03'0 0.0
2016-Feb-04 15:32N 53°24' W 003°03'0 0.0
2016-Feb-04 14:32N 53°24' W 003°03'0 0.0
2016-Feb-04 13:32N 53°24' W 003°03'0 0.0
2016-Feb-04 12:32N 53°24' W 003°03'0 0.0
2016-Feb-04 11:32N 53°24' W 003°03'0 0.0
2016-Feb-04 10:32N 53°24' W 003°03'0 0.0
2016-Feb-04 09:32N 53°24' W 003°03'0 0.0
2016-Feb-04 08:33N 53°24' W 003°03'0 0.0
2016-Feb-04 07:30N 53°24' W 003°03'0 0.0
2016-Feb-04 06:33N 53°24' W 003°03'0 0.0
2016-Feb-04 05:33N 53°24' W 003°03'0 0.0
2016-Feb-04 04:33N 53°24' W 003°03'0 0.0
2016-Feb-04 03:30N 53°24' W 003°03'0 0.0
2016-Feb-04 02:31N 53°24' W 003°03'0 0.0
2016-Feb-04 01:30N 53°24' W 003°03'0 0.0
2016-Feb-04 00:33N 53°24' W 003°03'0 0.0
2016-Feb-03 23:31N 53°24' W 003°03'0 0.0
2016-Feb-03 22:31N 53°24' W 003°03'0 0.0
2016-Feb-03 21:28N 53°24' W 003°03'0 0.0
2016-Feb-03 20:31N 53°24' W 003°03'0 0.0
2016-Feb-03 19:31N 53°24' W 003°03'0 0.0
2016-Feb-03 18:31N 53°24' W 003°03'0 0.0
2016-Feb-03 17:31N 53°24' W 003°03'0 0.0
2016-Feb-03 16:28N 53°24' W 003°03'0 0.0
2016-Feb-03 15:28N 53°24' W 003°03'0 0.0
2016-Feb-03 14:28N 53°24' W 003°03'0 0.0
2016-Feb-03 13:31N 53°24' W 003°03'0 0.0
2016-Feb-03 12:31N 53°24' W 003°03'0 0.0
2016-Feb-03 11:28N 53°24' W 003°03'0 0.0
2016-Feb-03 10:31N 53°24' W 003°03'0 0.0
2016-Feb-03 09:31N 53°24' W 003°03'0 0.0
2016-Feb-03 08:31N 53°24' W 003°03'0 0.0
2016-Feb-03 07:31N 53°24' W 003°03'0 0.0
2016-Feb-03 06:31N 53°24' W 003°03'0 0.0
2016-Feb-03 05:31N 53°24' W 003°03'0 0.0
2016-Feb-03 04:31N 53°24' W 003°03'0 0.0
2016-Feb-03 03:28N 53°24' W 003°03'0 0.0
2016-Feb-03 02:31N 53°24' W 003°03'0 0.0
2016-Feb-03 01:31N 53°24' W 003°03'0 0.0
2016-Feb-03 00:31N 53°24' W 003°03'0 0.0
2016-Feb-02 23:32N 53°24' W 003°03'0 0.0
2016-Feb-02 22:32N 53°24' W 003°03'0 0.0
2016-Feb-02 21:29N 53°24' W 003°03'0 0.0
2016-Feb-02 20:32N 53°24' W 003°03'0 0.0
2016-Feb-02 19:32N 53°24' W 003°03'0 0.0
2016-Feb-02 18:29N 53°24' W 003°03'0 0.0
2016-Feb-02 17:32N 53°24' W 003°03'0 0.0
2016-Feb-02 16:29N 53°24' W 003°03'0 0.0
2016-Feb-02 15:32N 53°24' W 003°03'0 0.0
2016-Feb-02 14:31N 53°24' W 003°03'0 0.0
2016-Feb-02 13:28N 53°24' W 003°03'0 0.0
2016-Feb-02 12:31N 53°24' W 003°03'0 0.0
2016-Feb-02 11:31N 53°24' W 003°03'0 0.0
2016-Feb-02 10:31N 53°24' W 003°03'0 0.0
2016-Feb-02 09:31N 53°24' W 003°03'0 0.0
2016-Feb-02 08:31N 53°24' W 003°03'0 0.0
2016-Feb-02 07:31N 53°24' W 003°03'0 0.0
2016-Feb-02 06:31N 53°24' W 003°03'0 0.0
2016-Feb-02 05:31N 53°24' W 003°03'0 0.0
2016-Feb-02 04:31N 53°24' W 003°03'0 0.0
2016-Feb-02 03:31N 53°24' W 003°03'0 0.0
2016-Feb-02 02:28N 53°24' W 003°03'0 0.0
2016-Feb-02 01:31N 53°24' W 003°03'0 0.0
2016-Feb-02 00:28N 53°24' W 003°03'0 0.0
2016-Feb-01 23:31N 53°24' W 003°03'0 0.0
2016-Feb-01 22:32N 53°24' W 003°03'0 0.0
2016-Feb-01 21:33N 53°24' W 003°03'0 0.0
2016-Feb-01 20:27N 53°24' W 003°03'0 0.0
2016-Feb-01 19:33N 53°24' W 003°03'0 0.0
2016-Feb-01 18:33N 53°24' W 003°03'0 0.0
2016-Feb-01 17:33N 53°24' W 003°03'0 0.0
2016-Feb-01 16:33N 53°24' W 003°03'1 1.0
2016-Feb-01 15:33N 53°24' W 003°01'3 2.5
2016-Feb-01 14:33N 53°27' W 003°02'9 9.4
2016-Feb-01 13:33N 53°31' W 003°16'1212.2
2016-Feb-01 12:33N 53°25' W 003°33'1312.6
2016-Feb-01 11:33N 53°24' W 003°54'  
Track history (hours):
 
Tides and Currents Weather Stations Pressure Air Temp Water Temp Dewpoint Dewpoint Depression Visibility Wind Speed Wind Dir Waves Ship Positions

Hanseatic Scout

Last reported at 2016-Feb-10 21:24 UTC. Time now 2016-Feb-11 08:45 UTC.
Position N 55°43' E 015°40'.

Length 89 m; draft 6.3 m.

Type: Ship. MMSI: 304867000.

Date/timePositionNaut miles runAvg speedWind from/ knotsBaromVisibWave heightAir tempDewpointWater temp
2016-Feb-10 21:24N 55°43' E 015°40'910.5
2016-Feb-10 20:33N 55°38' E 015°26'1110.6
2016-Feb-10 19:33N 55°33' E 015°10'1111.0
2016-Feb-10 18:33N 55°27' E 014°54'1010.2
2016-Feb-10 17:33N 55°23' E 014°38'1010.2
2016-Feb-10 16:33N 55°15' E 014°27'9 9.3
2016-Feb-10 15:33N 55°10' E 014°13'1110.5
2016-Feb-10 14:33N 55°10' E 013°55'1010.0
2016-Feb-10 13:33N 55°12' E 013°37'1010.1
2016-Feb-10 12:33N 55°13' E 013°20'1110.6
2016-Feb-10 11:29N 55°14' E 013°00'1010.7
2016-Feb-10 10:33N 55°17' E 012°43'8 8.3
2016-Feb-10 09:33N 55°25' E 012°40'1010.4
2016-Feb-10 08:33N 55°35' E 012°42'1010.2
2016-Feb-10 07:33N 55°45' E 012°41'1010.4
2016-Feb-10 06:33N 55°55' E 012°38'9 8.9
2016-Feb-10 05:33N 56°04' E 012°36'10 9.5
2016-Feb-10 04:33N 56°10' E 012°22'2410.0
2016-Feb-10 02:11N 56°29' E 011°58'710.6
2016-Feb-10 01:33N 56°36' E 011°55'1010.3
2016-Feb-10 00:33N 56°46' E 011°51'1010.2
2016-Feb-09 23:33N 56°56' E 011°45'1010.1
2016-Feb-09 22:33N 57°05' E 011°38'1010.0
2016-Feb-09 21:33N 57°14' E 011°32'1010.2
2016-Feb-09 20:33N 57°24' E 011°26'10 9.5
2016-Feb-09 19:33N 57°32' E 011°15'10 9.6
2016-Feb-09 18:33N 57°38' E 011°01'1010.4
2016-Feb-09 17:33N 57°46' E 010°48'1110.9
2016-Feb-09 16:30N 57°48' E 010°27'11910.6
2016-Feb-09 05:14N 57°43' E 006°44'300 9.6
2016-Feb-07 22:05N 58°41' W 002°34'5 9.9
2016-Feb-07 21:33N 58°42' W 002°44'1111.1
2016-Feb-07 20:33N 58°43' W 003°05'8 8.4
2016-Feb-07 19:33N 58°42' W 003°21'8 8.2
2016-Feb-07 18:33N 58°42' W 003°37'9 9.1
2016-Feb-07 17:33N 58°42' W 003°55'9 9.1
2016-Feb-07 16:34N 58°41' W 004°12'193 8.2
2016-Feb-06 17:06N 55°50' W 006°57'610.3
2016-Feb-06 16:33N 55°44' W 006°53'1110.7
2016-Feb-06 15:33N 55°35' W 006°45'1010.0
2016-Feb-06 14:33N 55°28' W 006°32'1212.2
2016-Feb-06 13:33N 55°25' W 006°11'1212.3
2016-Feb-06 12:33N 55°18' W 005°54'1313.4
2016-Feb-06 11:33N 55°06' W 005°44'1211.5
2016-Feb-06 10:33N 54°56' W 005°34'1110.7
2016-Feb-06 09:33N 54°46' W 005°26'10 9.8
2016-Feb-06 08:33N 54°37' W 005°19'10 9.6
2016-Feb-06 07:33N 54°28' W 005°14'10 9.6
2016-Feb-06 06:33N 54°19' W 005°09'10 9.9
2016-Feb-06 05:33N 54°09' W 005°03'5010.1
2016-Feb-06 00:33N 53°38' W 003°57'1110.9
2016-Feb-05 23:33N 53°34' W 003°40'1110.7
2016-Feb-05 22:33N 53°32' W 003°22'6 6.1
2016-Feb-05 21:33N 53°32' W 003°12'4 4.3
2016-Feb-05 20:33N 53°30' W 003°05'5 5.5
2016-Feb-05 19:33N 53°25' W 003°01'1 0.8
2016-Feb-05 18:33N 53°24' W 003°01'0 0.0
2016-Feb-05 17:33N 53°24' W 003°01'1 1.0
2016-Feb-05 16:33N 53°24' W 003°03'0 0.0
2016-Feb-05 15:32N 53°24' W 003°03'0 0.0
2016-Feb-05 14:32N 53°24' W 003°03'0 0.0
2016-Feb-05 13:32N 53°24' W 003°03'0 0.0
2016-Feb-05 12:29N 53°24' W 003°03'0 0.0
2016-Feb-05 11:32N 53°24' W 003°03'0 0.0
2016-Feb-05 10:32N 53°24' W 003°03'0 0.0
2016-Feb-05 09:32N 53°24' W 003°03'0 0.0
2016-Feb-05 08:29N 53°24' W 003°03'0 0.0
2016-Feb-05 07:32N 53°24' W 003°03'0 0.0
2016-Feb-05 06:32N 53°24' W 003°03'0 0.0
2016-Feb-05 05:32N 53°24' W 003°03'0 0.0
2016-Feb-05 04:32N 53°24' W 003°03'0 0.0
2016-Feb-05 03:29N 53°24' W 003°03'0 0.0
2016-Feb-05 02:29N 53°24' W 003°03'0 0.0
2016-Feb-05 01:26N 53°24' W 003°03'0 0.0
2016-Feb-05 00:32N 53°24' W 003°03'0 0.0
2016-Feb-04 23:32N 53°24' W 003°03'0 0.0
2016-Feb-04 22:32N 53°24' W 003°03'0 0.0
2016-Feb-04 21:32N 53°24' W 003°03'0 0.0
2016-Feb-04 20:32N 53°24' W 003°03'0 0.0
2016-Feb-04 19:32N 53°24' W 003°03'0 0.0
2016-Feb-04 18:29N 53°24' W 003°03'0 0.0
2016-Feb-04 17:32N 53°24' W 003°03'0 0.0
2016-Feb-04 16:29N 53°24' W 003°03'0 0.0
2016-Feb-04 15:32N 53°24' W 003°03'0 0.0
2016-Feb-04 14:32N 53°24' W 003°03'0 0.0
2016-Feb-04 13:32N 53°24' W 003°03'0 0.0
2016-Feb-04 12:32N 53°24' W 003°03'0 0.0
2016-Feb-04 11:32N 53°24' W 003°03'0 0.0
2016-Feb-04 10:32N 53°24' W 003°03'0 0.0
2016-Feb-04 09:32N 53°24' W 003°03'0 0.0
2016-Feb-04 08:33N 53°24' W 003°03'0 0.0
2016-Feb-04 07:30N 53°24' W 003°03'0 0.0
2016-Feb-04 06:33N 53°24' W 003°03'0 0.0
2016-Feb-04 05:33N 53°24' W 003°03'0 0.0
2016-Feb-04 04:33N 53°24' W 003°03'0 0.0
2016-Feb-04 03:30N 53°24' W 003°03'0 0.0
2016-Feb-04 02:31N 53°24' W 003°03'0 0.0
2016-Feb-04 01:30N 53°24' W 003°03'0 0.0
2016-Feb-04 00:33N 53°24' W 003°03'0 0.0
2016-Feb-03 23:31N 53°24' W 003°03'0 0.0
2016-Feb-03 22:31N 53°24' W 003°03'0 0.0
2016-Feb-03 21:28N 53°24' W 003°03'0 0.0
2016-Feb-03 20:31N 53°24' W 003°03'0 0.0
2016-Feb-03 19:31N 53°24' W 003°03'0 0.0
2016-Feb-03 18:31N 53°24' W 003°03'0 0.0
2016-Feb-03 17:31N 53°24' W 003°03'0 0.0
2016-Feb-03 16:28N 53°24' W 003°03'0 0.0
2016-Feb-03 15:28N 53°24' W 003°03'0 0.0
2016-Feb-03 14:28N 53°24' W 003°03'0 0.0
2016-Feb-03 13:31N 53°24' W 003°03'0 0.0
2016-Feb-03 12:31N 53°24' W 003°03'0 0.0
2016-Feb-03 11:28N 53°24' W 003°03'0 0.0
2016-Feb-03 10:31N 53°24' W 003°03'0 0.0
2016-Feb-03 09:31N 53°24' W 003°03'0 0.0
2016-Feb-03 08:31N 53°24' W 003°03'0 0.0
2016-Feb-03 07:31N 53°24' W 003°03'0 0.0
2016-Feb-03 06:31N 53°24' W 003°03'0 0.0
2016-Feb-03 05:31N 53°24' W 003°03'0 0.0
2016-Feb-03 04:31N 53°24' W 003°03'0 0.0
2016-Feb-03 03:28N 53°24' W 003°03'0 0.0
2016-Feb-03 02:31N 53°24' W 003°03'0 0.0
2016-Feb-03 01:31N 53°24' W 003°03'0 0.0
2016-Feb-03 00:31N 53°24' W 003°03'0 0.0
2016-Feb-02 23:32N 53°24' W 003°03'0 0.0
2016-Feb-02 22:32N 53°24' W 003°03'0 0.0
2016-Feb-02 21:29N 53°24' W 003°03'0 0.0
2016-Feb-02 20:32N 53°24' W 003°03'0 0.0
2016-Feb-02 19:32N 53°24' W 003°03'0 0.0
2016-Feb-02 18:29N 53°24' W 003°03'0 0.0
2016-Feb-02 17:32N 53°24' W 003°03'0 0.0
2016-Feb-02 16:29N 53°24' W 003°03'0 0.0
2016-Feb-02 15:32N 53°24' W 003°03'0 0.0
2016-Feb-02 14:31N 53°24' W 003°03'0 0.0
2016-Feb-02 13:28N 53°24' W 003°03'0 0.0
2016-Feb-02 12:31N 53°24' W 003°03'0 0.0
2016-Feb-02 11:31N 53°24' W 003°03'0 0.0
2016-Feb-02 10:31N 53°24' W 003°03'0 0.0
2016-Feb-02 09:31N 53°24' W 003°03'0 0.0
2016-Feb-02 08:31N 53°24' W 003°03'0 0.0
2016-Feb-02 07:31N 53°24' W 003°03'0 0.0
2016-Feb-02 06:31N 53°24' W 003°03'0 0.0
2016-Feb-02 05:31N 53°24' W 003°03'0 0.0
2016-Feb-02 04:31N 53°24' W 003°03'0 0.0
2016-Feb-02 03:31N 53°24' W 003°03'0 0.0
2016-Feb-02 02:28N 53°24' W 003°03'0 0.0
2016-Feb-02 01:31N 53°24' W 003°03'0 0.0
2016-Feb-02 00:28N 53°24' W 003°03'0 0.0
2016-Feb-01 23:31N 53°24' W 003°03'0 0.0
2016-Feb-01 22:32N 53°24' W 003°03'0 0.0
2016-Feb-01 21:33N 53°24' W 003°03'0 0.0
2016-Feb-01 20:27N 53°24' W 003°03'0 0.0
2016-Feb-01 19:33N 53°24' W 003°03'0 0.0
2016-Feb-01 18:33N 53°24' W 003°03'0 0.0
2016-Feb-01 17:33N 53°24' W 003°03'0 0.0
2016-Feb-01 16:33N 53°24' W 003°03'1 1.0
2016-Feb-01 15:33N 53°24' W 003°01'3 2.5
2016-Feb-01 14:33N 53°27' W 003°02'9 9.4
2016-Feb-01 13:33N 53°31' W 003°16'1212.2
2016-Feb-01 12:33N 53°25' W 003°33'1312.6
2016-Feb-01 11:33N 53°24' W 003°54'  

Dump ship's entire track history